Time;durP1;ratioP1;P1;durP2;ratioP2;P2;SDS_P1;SDS_P2;PMS_P1;PMS_P2;Temp;Humidity;BMP_temperature;BMP_pressure;BME280_temperature;BME280_humidity;BME280_pressure;Samples;Min_cycle;Max_cycle;Signal;HPM_P1;HPM_P2
2021/04/10 00:02:11;;;;;;;41.65;13.55;;;;;;;-0.56;100.00;102043.19;1773755;80;21259;-84
2021/04/10 00:04:38;;;;;;;38.83;12.28;;;;;;;-0.55;100.00;102044.02;1773697;80;21161;-84
2021/04/10 00:07:04;;;;;;;41.10;12.75;;;;;;;-0.57;100.00;102045.97;1773865;80;21117;-84
2021/04/10 00:09:30;;;;;;;36.03;12.15;;;;;;;-0.56;100.00;102045.84;1773767;80;21204;-84
2021/04/10 00:11:56;;;;;;;38.58;12.98;;;;;;;-0.59;100.00;102046.14;1773810;80;21605;-84
2021/04/10 00:14:24;;;;;;;36.73;12.33;;;;;;;-0.60;100.00;102043.13;1773536;80;21208;-84
2021/04/10 00:16:51;;;;;;;33.85;12.80;;;;;;;-0.60;100.00;102049.75;1773556;80;21141;-84
2021/04/10 00:19:16;;;;;;;39.45;12.10;;;;;;;-0.62;100.00;102047.73;1773840;80;21164;-84
2021/04/10 00:21:42;;;;;;;35.52;12.55;;;;;;;-0.67;100.00;102047.87;1773646;80;22434;-84
2021/04/10 00:24:11;;;;;;;35.83;10.93;;;;;;;-0.67;100.00;102047.87;1773850;80;20962;-84
2021/04/10 00:26:37;;;;;;;41.80;12.25;;;;;;;-0.75;100.00;102046.78;1773725;80;21176;-84
2021/04/10 00:29:03;;;;;;;36.65;12.30;;;;;;;-0.75;100.00;102048.60;1773605;80;21205;-84
2021/04/10 00:31:30;;;;;;;35.70;12.63;;;;;;;-0.76;100.00;102046.95;1773756;80;20943;-84
2021/04/10 00:33:56;;;;;;;40.92;12.10;;;;;;;-0.79;100.00;102042.78;1705891;83;21188;-84
2021/04/10 00:36:22;;;;;;;34.18;10.78;;;;;;;-0.80;100.00;102041.09;1712563;83;20996;-84
2021/04/10 00:38:48;;;;;;;26.70;10.43;;;;;;;-0.80;100.00;102047.72;1756750;81;21853;-84
2021/04/10 00:41:14;;;;;;;31.45;11.08;;;;;;;-0.89;100.00;102046.45;1756721;81;21040;-84
2021/04/10 00:43:40;;;;;;;36.17;10.58;;;;;;;-0.89;100.00;102053.07;1728749;83;21195;-84
2021/04/10 00:46:07;;;;;;;33.88;10.85;;;;;;;-0.88;100.00;102048.97;1727288;83;21084;-84
2021/04/10 00:48:34;;;;;;;30.52;10.90;;;;;;;-0.84;100.00;102052.14;1727007;83;21402;-84
2021/04/10 00:51:00;;;;;;;32.75;11.55;;;;;;;-0.84;100.00;102052.97;1726912;83;21671;-84
2021/04/10 00:53:28;;;;;;;33.90;12.35;;;;;;;-0.81;100.00;102049.20;1727031;83;21146;-84
2021/04/10 00:55:58;;;;;;;33.08;11.97;;;;;;;-0.80;100.00;102056.15;1727104;83;21509;-84
2021/04/10 00:58:24;;;;;;;37.53;12.28;;;;;;;-0.79;100.00;102049.89;1727021;83;21155;-84
2021/04/10 01:00:50;;;;;;;43.80;14.15;;;;;;;-0.83;100.00;102048.02;1727178;83;21160;-84
2021/04/10 01:03:16;;;;;;;43.23;13.35;;;;;;;-0.88;100.00;102052.94;1727094;83;21180;-84
2021/04/10 01:05:42;;;;;;;42.58;13.25;;;;;;;-0.93;100.00;102053.86;1702555;83;21123;-84
2021/04/10 01:08:08;;;;;;;44.63;14.15;;;;;;;-0.90;100.00;102052.25;1727129;83;21212;-84
2021/04/10 01:10:34;;;;;;;38.38;12.40;;;;;;;-0.87;100.00;102048.48;1727131;83;21564;-84
2021/04/10 01:13:38;;;;;;;38.00;12.25;;;;;;;-0.84;100.00;102046.85;1697863;84;21609;-84
2021/04/10 01:16:25;;;;;;;35.85;11.83;;;;;;;-0.82;100.00;102048.38;1727073;83;21916;-84
2021/04/10 01:18:56;;;;;;;43.68;12.30;;;;;;;-0.80;100.00;102046.88;1721751;83;21727;-84
2021/04/10 01:21:43;;;;;;;37.42;12.58;;;;;;;-0.77;100.00;102050.06;1639679;87;21256;-84
2021/04/10 01:24:41;;;;;;;38.23;12.85;;;;;;;-0.77;100.00;102044.77;1637809;87;21199;-84
2021/04/10 01:27:39;;;;;;;35.98;11.57;;;;;;;-0.74;100.00;102049.76;1641216;87;21622;-84
2021/04/10 01:30:19;;;;;;;42.03;11.97;;;;;;;-0.75;100.00;102044.63;1641297;86;21473;-84
2021/04/10 01:32:58;;;;;;;36.55;12.25;;;;;;;-0.73;100.00;102047.97;1613017;88;21215;-84
2021/04/10 01:35:29;;;;;;;35.00;11.73;;;;;;;-0.77;100.00;102051.88;1613339;88;21091;-84
2021/04/10 01:38:02;;;;;;;33.25;11.33;;;;;;;-0.80;100.00;102044.23;1599317;86;21286;-84
2021/04/10 01:40:32;;;;;;;36.28;12.18;;;;;;;-0.84;100.00;102054.30;1602849;89;21076;-84
2021/04/10 01:42:59;;;;;;;36.93;11.97;;;;;;;-0.86;100.00;102060.22;1602405;89;21928;-84
2021/04/10 01:45:27;;;;;;;34.00;11.15;;;;;;;-0.81;100.00;102058.46;1602663;89;21218;-84
2021/04/10 01:47:58;;;;;;;34.13;11.53;;;;;;;-0.83;100.00;102055.12;1602622;89;21163;-84
2021/04/10 01:50:26;;;;;;;30.50;10.68;;;;;;;-0.84;100.00;102056.94;1602652;89;21013;-84
2021/04/10 01:52:53;;;;;;;41.08;12.47;;;;;;;-0.84;100.00;102054.80;1602617;89;21457;-84
2021/04/10 01:55:21;;;;;;;42.70;11.20;;;;;;;-0.88;100.00;102060.02;1602507;89;21218;-84
2021/04/10 01:57:50;;;;;;;31.35;11.08;;;;;;;-0.89;100.00;102054.39;1603149;88;21175;-84
2021/04/10 02:00:19;;;;;;;35.68;11.28;;;;;;;-0.91;100.00;102057.20;1628542;88;21262;-84
2021/04/10 02:02:46;;;;;;;33.98;10.23;;;;;;;-0.94;100.00;102057.50;1628543;88;21151;-84
2021/04/10 02:05:15;;;;;;;39.15;11.10;;;;;;;-0.93;100.00;102057.84;1628514;88;21148;-84
2021/04/10 02:07:44;;;;;;;36.95;11.22;;;;;;;-0.93;100.00;102057.84;1628479;88;21249;-84
2021/04/10 02:10:15;;;;;;;32.55;10.60;;;;;;;-0.96;100.00;102058.13;1628308;88;21277;-84
2021/04/10 02:12:43;;;;;;;29.40;9.50;;;;;;;-0.98;100.00;102058.27;1628581;88;21695;-83
2021/04/10 02:15:12;;;;;;;28.30;9.98;;;;;;;-1.02;100.00;102058.23;1628582;88;21632;-84
2021/04/10 02:17:39;;;;;;;28.07;10.30;;;;;;;-1.05;100.00;102059.84;1640913;85;21276;-84
2021/04/10 02:20:10;;;;;;;34.13;10.25;;;;;;;-1.07;100.00;102059.16;1679169;85;21229;-84
2021/04/10 02:22:37;;;;;;;27.62;9.23;;;;;;;-1.13;100.00;102058.91;1678864;85;21246;-84
2021/04/10 02:25:05;;;;;;;29.60;9.53;;;;;;;-1.14;100.00;102059.41;1678812;85;21274;-84
2021/04/10 02:27:31;;;;;;;25.20;9.15;;;;;;;-1.17;100.00;102055.73;1679262;85;21233;-84
2021/04/10 02:29:59;;;;;;;28.30;9.45;;;;;;;-1.18;100.00;102066.81;1723909;82;21121;-84
2021/04/10 02:32:36;;;;;;;24.72;9.80;;;;;;;-1.19;100.00;102057.69;1742526;81;21998;-84
2021/04/10 02:35:10;;;;;;;28.75;9.33;;;;;;;-1.20;100.00;102058.67;1739163;82;21546;-84
2021/04/10 02:37:37;;;;;;;22.75;8.38;;;;;;;-1.23;100.00;102061.12;1741191;82;21196;-83
2021/04/10 02:40:07;;;;;;;29.10;10.78;;;;;;;-1.26;100.00;102062.73;1707017;83;21144;-84
2021/04/10 02:42:37;;;;;;;30.77;10.08;;;;;;;-1.28;100.00;102067.81;1723366;83;21687;-84
2021/04/10 02:45:06;;;;;;;27.22;9.05;;;;;;;-1.39;100.00;102073.62;1723741;83;21156;-84
2021/04/10 02:47:34;;;;;;;27.67;9.33;;;;;;;-1.42;100.00;102071.75;1723393;83;21731;-84
2021/04/10 02:50:05;;;;;;;36.08;9.75;;;;;;;-1.40;100.00;102074.60;1723646;83;21230;-83
2021/04/10 02:52:41;;;;;;;30.27;10.03;;;;;;;-1.42;100.00;102080.52;1723557;83;21682;-83
2021/04/10 02:55:09;;;;;;;29.72;10.65;;;;;;;-1.47;100.00;102071.34;1687423;84;21242;-83
2021/04/10 02:57:37;;;;;;;23.80;9.60;;;;;;;-1.51;100.00;102069.48;1664392;85;21528;-83
2021/04/10 03:00:06;;;;;;;28.00;8.58;;;;;;;-1.50;100.00;102073.81;1687482;85;21028;-83
2021/04/10 03:02:35;;;;;;;27.52;9.23;;;;;;;-1.49;100.00;102068.03;1687509;85;21171;-83
2021/04/10 03:05:02;;;;;;;33.85;9.63;;;;;;;-1.52;100.00;102069.64;1664176;85;21136;-83
2021/04/10 03:07:28;;;;;;;27.93;9.30;;;;;;;-1.48;100.00;102077.63;1687654;85;21109;-83
2021/04/10 03:09:55;;;;;;;30.48;8.83;;;;;;;-1.46;100.00;102077.00;1687633;85;21982;-83
2021/04/10 03:12:22;;;;;;;28.83;9.65;;;;;;;-1.47;100.00;102084.10;1687458;85;21164;-83
2021/04/10 03:14:50;;;;;;;32.48;9.60;;;;;;;-1.45;100.00;102074.69;1687508;85;21143;-83
2021/04/10 03:17:21;;;;;;;29.15;9.65;;;;;;;-1.40;100.00;102083.03;1687540;85;21593;-83
2021/04/10 03:19:50;;;;;;;31.90;10.35;;;;;;;-1.32;100.00;102077.86;1580135;90;21191;-84
2021/04/10 03:22:16;;;;;;;26.17;9.30;;;;;;;-1.28;100.00;102083.69;1580213;90;21276;-84
2021/04/10 03:24:43;;;;;;;38.98;10.72;;;;;;;-1.24;100.00;102087.20;1580187;90;21250;-83
2021/04/10 03:27:11;;;;;;;31.15;10.68;;;;;;;-1.24;100.00;102091.66;1580065;89;21282;-83
2021/04/10 03:29:39;;;;;;;32.35;10.35;;;;;;;-1.22;100.00;102098.47;1580158;90;21195;-84
2021/04/10 03:32:07;;;;;;;32.03;11.05;;;;;;;-1.13;100.00;102098.09;1580334;90;21293;-84
2021/04/10 03:34:34;;;;;;;40.65;12.07;;;;;;;-1.00;100.00;102095.96;1576734;90;21259;-84
2021/04/10 03:37:01;;;;;;;35.70;11.22;;;;;;;-0.98;100.00;102091.33;1571291;89;21287;-84
2021/04/10 03:39:29;;;;;;;36.90;11.15;;;;;;;-0.88;100.00;102097.06;1537297;92;21513;-84
2021/04/10 03:41:56;;;;;;;33.90;11.68;;;;;;;-0.74;100.00;102105.34;1522670;94;21227;-84
2021/04/10 03:44:24;;;;;;;40.08;12.88;;;;;;;-0.63;100.00;102093.72;1506740;94;21643;-84
2021/04/10 03:46:51;;;;;;;44.50;13.48;;;;;;;-0.56;100.00;102096.14;1525745;94;21442;-84
2021/04/10 03:49:17;;;;;;;49.53;13.08;;;;;;;-0.39;100.00;102097.61;1507053;94;21271;-85
2021/04/10 03:51:43;;;;;;;35.73;12.30;;;;;;;-0.22;100.00;102099.44;1557118;88;21053;-84
2021/04/10 03:54:09;;;;;;;45.65;13.20;;;;;;;-0.04;100.00;102100.75;1656961;86;20990;-85
2021/04/10 03:56:36;;;;;;;41.73;13.72;;;;;;;0.11;100.00;102100.54;1656496;86;20997;-85
2021/04/10 03:59:02;;;;;;;44.27;13.40;;;;;;;0.34;100.00;102101.37;1656788;86;21811;-85
2021/04/10 04:01:28;;;;;;;40.30;13.78;;;;;;;0.72;100.00;102106.77;1656853;86;21239;-85
2021/04/10 04:03:54;;;;;;;41.63;12.80;;;;;;;1.41;100.00;102102.72;1657013;86;20946;-85
2021/04/10 04:06:20;;;;;;;50.80;15.85;;;;;;;2.40;100.00;102105.80;1656808;86;21077;-85
2021/04/10 04:08:46;;;;;;;49.90;15.98;;;;;;;3.47;100.00;102098.25;1656889;86;21058;-85
2021/04/10 04:11:12;;;;;;;53.42;19.92;;;;;;;4.69;100.00;102098.58;1656814;86;22263;-86
2021/04/10 04:13:38;;;;;;;69.22;25.08;;;;;;;5.84;100.00;102091.21;1656767;86;20986;-85
2021/04/10 04:16:04;;;;;;;54.65;22.02;;;;;;;7.11;100.00;102095.63;1662868;80;21005;-85
2021/04/10 04:18:30;;;;;;;51.95;19.67;;;;;;;8.45;100.00;102093.52;1777525;80;21085;-85
2021/04/10 04:20:56;;;;;;;80.87;32.00;;;;;;;8.91;80.00;102088.54;1777434;80;21129;-85
2021/04/10 04:23:22;;;;;;;74.90;32.20;;;;;;;9.66;72.42;102096.08;1777373;80;21628;-86
2021/04/10 04:25:48;;;;;;;72.78;31.55;;;;;;;10.19;68.98;102094.34;1777368;80;21005;-86
2021/04/10 04:28:14;;;;;;;74.05;33.13;;;;;;;10.90;63.11;102093.88;1777400;80;21033;-86
2021/04/10 04:30:39;;;;;;;72.60;29.82;;;;;;;11.95;64.20;102091.90;1777442;80;21560;-86
2021/04/10 04:33:05;;;;;;;68.25;30.48;;;;;;;13.37;69.44;102100.20;1749056;80;20922;-86
2021/04/10 04:35:31;;;;;;;63.95;27.75;;;;;;;14.63;60.39;102093.66;1740086;80;21192;-86
2021/04/10 04:37:57;;;;;;;45.08;20.97;;;;;;;15.53;53.40;102096.40;1798378;79;20973;-86
2021/04/10 04:40:23;;;;;;;38.05;16.60;;;;;;;16.27;49.37;102095.71;1814981;78;21151;-86
2021/04/10 04:42:49;;;;;;;30.77;15.05;;;;;;;16.53;44.14;102098.58;1815101;78;21163;-86
2021/04/10 04:45:15;;;;;;;28.07;13.15;;;;;;;16.83;42.85;102088.46;1814978;79;20987;-87
2021/04/10 04:47:41;;;;;;;26.37;11.48;;;;;;;17.06;39.19;102091.28;1787784;79;21081;-86
2021/04/10 04:50:08;;;;;;;23.02;11.28;;;;;;;17.02;36.51;102089.61;1814998;78;20951;-86
2021/04/10 04:52:34;;;;;;;23.15;11.53;;;;;;;16.84;38.84;102088.73;1783515;79;21479;-86
2021/04/10 04:55:00;;;;;;;28.15;12.47;;;;;;;18.24;38.66;102087.39;1814962;78;20942;-86
2021/04/10 04:57:26;;;;;;;30.35;12.53;;;;;;;18.91;36.77;102085.31;1814954;79;21114;-87
2021/04/10 04:59:52;;;;;;;31.33;13.75;;;;;;;18.55;32.20;102089.50;1815159;78;21241;-86
2021/04/10 05:02:17;;;;;;;39.30;17.32;;;;;;;17.76;30.62;102083.52;1815074;78;20926;-86
2021/04/10 05:04:43;;;;;;;31.37;13.90;;;;;;;18.23;33.49;102087.09;1815116;78;21044;-86
2021/04/10 05:07:09;;;;;;;31.97;12.45;;;;;;;17.10;30.34;102089.66;1814963;79;20961;-87
2021/04/10 05:09:35;;;;;;;27.02;10.78;;;;;;;17.81;32.91;102087.66;1814922;78;21015;-86
2021/04/10 05:12:01;;;;;;;24.95;10.35;;;;;;;17.57;31.13;102093.33;1787757;79;21192;-86
2021/04/10 05:14:27;;;;;;;26.82;10.58;;;;;;;18.17;31.05;102090.38;1815017;78;21073;-87
2021/04/10 05:16:53;;;;;;;21.48;10.55;;;;;;;16.09;31.09;102098.84;1814953;79;20930;-87
2021/04/10 05:19:19;;;;;;;24.63;11.38;;;;;;;14.60;33.58;102103.66;1815095;79;21012;-87
2021/04/10 05:21:44;;;;;;;25.27;11.38;;;;;;;15.43;34.16;102099.81;1814995;78;21160;-87
2021/04/10 05:24:10;;;;;;;27.40;11.50;;;;;;;14.76;33.48;102105.50;1814887;78;21185;-87
2021/04/10 05:26:36;;;;;;;29.12;12.20;;;;;;;13.66;35.15;102101.56;1814753;78;21061;-88
2021/04/10 05:29:03;;;;;;;21.60;10.82;;;;;;;15.12;34.65;102098.66;1814956;79;21568;-87
2021/04/10 05:31:30;;;;;;;26.33;12.93;;;;;;;15.84;31.95;102097.53;1815061;78;21175;-86
2021/04/10 05:33:57;;;;;;;26.95;11.97;;;;;;;16.78;33.79;102100.13;1815076;78;21144;-86
2021/04/10 05:36:23;;;;;;;25.57;10.78;;;;;;;15.30;32.88;102100.77;1814962;78;21165;-86
2021/04/10 05:38:48;;;;;;;26.10;11.22;;;;;;;14.82;33.11;102107.75;1812554;78;21601;-86
2021/04/10 05:41:14;;;;;;;26.50;12.10;;;;;;;13.87;34.47;102110.34;1812133;79;20962;-87
2021/04/10 05:43:40;;;;;;;23.22;10.95;;;;;;;15.10;34.91;102115.73;1812163;78;21049;-86
2021/04/10 05:46:07;;;;;;;21.15;11.05;;;;;;;16.22;35.35;102112.53;1812130;79;20934;-86
2021/04/10 05:48:33;;;;;;;22.55;11.40;;;;;;;15.44;32.39;102108.77;1812003;78;21136;-87
2021/04/10 05:50:59;;;;;;;25.97;11.00;;;;;;;16.69;32.46;102109.04;1812026;78;21675;-86
2021/04/10 05:53:28;;;;;;;21.00;10.90;;;;;;;15.44;33.62;102102.83;1812394;78;21569;-86
2021/04/10 05:55:55;;;;;;;22.50;10.25;;;;;;;15.52;34.13;102107.51;1812308;79;21105;-86
2021/04/10 05:58:21;;;;;;;21.33;10.25;;;;;;;16.01;32.44;102100.67;1812328;79;21105;-86
2021/04/10 06:00:47;;;;;;;21.25;10.32;;;;;;;16.40;31.58;102094.43;1812185;78;21140;-86
2021/04/10 06:03:14;;;;;;;22.05;9.75;;;;;;;18.61;30.97;102094.66;1812157;79;21072;-86
2021/04/10 06:05:46;;;;;;;19.15;9.60;;;;;;;18.25;30.84;102098.02;1812192;79;21109;-85
2021/04/10 06:08:12;;;;;;;17.67;8.60;;;;;;;18.71;29.68;102089.74;1812431;78;21156;-86
2021/04/10 06:10:39;;;;;;;14.78;8.30;;;;;;;17.43;29.25;102096.56;1812384;79;21113;-86
2021/04/10 06:13:05;;;;;;;19.45;8.93;;;;;;;16.28;31.27;102101.42;1812153;79;21828;-86
2021/04/10 06:15:31;;;;;;;14.70;8.18;;;;;;;17.71;29.75;102099.34;1812398;78;20949;-84
2021/04/10 06:17:57;;;;;;;17.57;8.00;;;;;;;18.91;28.87;102094.87;1812262;78;21029;-84
2021/04/10 06:20:24;;;;;;;18.55;8.18;;;;;;;20.68;29.17;102096.64;1812292;79;20910;-84
2021/04/10 06:22:50;;;;;;;16.65;7.95;;;;;;;21.25;26.21;102096.18;1812272;79;21617;-85
2021/04/10 06:25:16;;;;;;;16.00;7.90;;;;;;;21.46;25.63;102102.22;1812113;78;21220;-85
2021/04/10 06:27:42;;;;;;;20.30;8.45;;;;;;;21.50;26.21;102095.05;1812236;79;21108;-85
2021/04/10 06:30:10;;;;;;;15.25;8.40;;;;;;;20.27;26.12;102088.81;1782649;79;21124;-85
2021/04/10 06:32:36;;;;;;;13.48;8.23;;;;;;;21.19;27.08;102093.81;1812191;78;21110;-85
2021/04/10 06:35:05;;;;;;;18.12;8.13;;;;;;;23.71;25.89;102095.81;1812244;79;21167;-85
2021/04/10 06:37:31;;;;;;;18.87;8.43;;;;;;;23.80;23.44;102093.94;1812181;79;21668;-85
2021/04/10 06:39:57;;;;;;;15.88;8.48;;;;;;;25.25;22.26;102094.67;1812177;79;21564;-85
2021/04/10 06:42:23;;;;;;;15.50;7.65;;;;;;;25.21;22.21;102085.97;1812203;79;21153;-86
2021/04/10 06:44:49;;;;;;;12.65;7.50;;;;;;;24.78;23.05;102087.48;1812170;79;21088;-86
2021/04/10 06:47:19;;;;;;;13.72;5.58;;;;;;;25.53;22.14;102087.44;1812236;79;20982;-87
2021/04/10 06:49:46;;;;;;;10.18;5.00;;;;;;;20.10;24.04;102098.81;1808099;79;21435;-89
2021/04/10 06:52:16;;;;;;;9.83;4.92;;;;;;;19.09;25.00;102095.64;1812074;78;21183;-90
2021/04/10 06:54:45;;;;;;;12.03;5.53;;;;;;;19.90;24.01;102095.69;1812068;79;21179;-88
2021/04/10 06:57:15;;;;;;;10.28;5.22;;;;;;;19.45;26.28;102098.99;1812124;78;21112;-88
2021/04/10 07:00:07;;;;;;;8.90;5.62;;;;;;;21.85;24.31;102087.91;1811819;79;21129;-88
2021/04/10 07:02:35;;;;;;;8.08;4.95;;;;;;;20.34;25.16;102087.09;1782766;79;21328;-91
2021/04/10 07:05:01;;;;;;;8.35;5.15;;;;;;;19.35;24.73;102094.13;1812045;79;21125;-90
2021/04/10 07:07:28;;;;;;;6.20;4.05;;;;;;;21.16;24.60;102093.84;1812230;78;21104;-90
2021/04/10 07:09:54;;;;;;;6.37;4.45;;;;;;;22.72;22.81;102085.81;1811957;78;21613;-89
2021/04/10 07:12:21;;;;;;;8.15;4.65;;;;;;;21.10;22.38;102094.46;1812146;78;21165;-89
2021/04/10 07:14:48;;;;;;;6.08;4.17;;;;;;;20.16;22.66;102099.59;1812086;79;21196;-90
2021/04/10 07:17:15;;;;;;;5.92;3.67;;;;;;;19.10;23.15;102089.62;1812158;79;21196;-90
2021/04/10 07:19:42;;;;;;;7.58;4.17;;;;;;;18.50;24.09;102101.79;1812241;78;21598;-89
2021/04/10 07:22:16;;;;;;;8.28;4.80;;;;;;;19.38;22.88;102089.45;1812199;79;21192;-90
2021/04/10 07:24:50;;;;;;;7.55;4.12;;;;;;;19.92;22.76;102087.21;1777666;79;21192;-88
2021/04/10 07:27:22;;;;;;;6.05;4.28;;;;;;;20.48;23.98;102088.05;1812180;79;21241;-90
2021/04/10 07:29:51;;;;;;;;;;;;;;;20.80;22.43;102092.92;1814906;79;21140;-88
2021/04/10 07:32:38;;;;;;;10.90;3.95;;;;;;;22.23;21.10;102082.60;1812312;79;20568;-89
2021/04/10 07:35:11;;;;;;;7.03;3.65;;;;;;;19.82;23.10;102082.61;1812097;79;21113;-89
2021/04/10 07:37:40;;;;;;;6.45;4.22;;;;;;;20.65;21.03;102090.38;1811777;79;21113;-91
2021/04/10 07:40:26;;;;;;;6.37;3.50;;;;;;;17.11;23.68;102084.47;1806525;79;21133;-90
2021/04/10 07:42:53;;;;;;;7.80;4.03;;;;;;;17.53;24.50;102084.03;1805633;79;21173;-91
2021/04/10 07:45:32;;;;;;;9.85;4.30;;;;;;;18.05;23.23;102081.11;1806304;79;21169;-92
2021/04/10 07:48:14;;;;;;;7.42;4.37;;;;;;;17.87;23.56;102085.20;1803766;79;21144;-89
2021/04/10 07:50:39;;;;;;;10.30;4.50;;;;;;;18.56;23.58;102076.95;1806342;79;21125;-92
2021/04/10 07:53:26;;;;;;;6.62;4.25;;;;;;;17.76;24.50;102068.52;1806287;79;21228;-90
2021/04/10 07:55:57;;;;;;;6.62;3.52;;;;;;;16.75;24.47;102088.38;1806159;79;21261;-91
2021/04/10 07:58:33;;;;;;;5.97;3.50;;;;;;;18.28;23.37;102079.72;1806649;79;21625;-92
2021/04/10 08:01:05;;;;;;;6.78;3.12;;;;;;;17.53;23.34;102087.61;1806275;79;21604;-90
2021/04/10 08:03:51;;;;;;;7.12;3.62;;;;;;;17.05;23.37;102070.56;1806524;79;21148;-89
2021/04/10 08:06:20;;;;;;;6.30;3.10;;;;;;;17.43;23.64;102071.22;1806385;79;21256;-89
2021/04/10 08:08:57;;;;;;;6.70;3.87;;;;;;;19.30;22.04;102073.12;1806417;79;21133;-94
2021/04/10 08:11:43;;;;;;;5.05;3.40;;;;;;;18.35;22.17;102064.42;1806410;79;21144;-92
2021/04/10 08:14:12;;;;;;;5.65;3.42;;;;;;;18.77;21.83;102066.00;1806436;79;21558;-90
2021/04/10 08:16:44;;;;;;;5.30;3.25;;;;;;;18.25;23.53;102063.09;1806502;79;21085;-92
2021/04/10 08:19:12;;;;;;;5.55;3.30;;;;;;;14.97;25.89;102061.28;1806699;79;21339;-90
2021/04/10 08:21:50;;;;;;;6.58;3.30;;;;;;;14.72;27.29;102071.80;1786019;79;21105;-90
2021/04/10 08:24:33;;;;;;;8.45;3.08;;;;;;;17.14;24.34;102055.33;1741933;82;21132;-90
2021/04/10 08:27:09;;;;;;;6.50;3.10;;;;;;;19.46;22.73;102051.95;1742115;82;22600;-89
2021/04/10 08:29:37;;;;;;;6.20;3.35;;;;;;;17.69;22.61;102059.80;1742356;82;21183;-90
2021/04/10 08:32:04;;;;;;;6.55;3.20;;;;;;;15.74;24.22;102058.03;1741913;82;21148;-90
2021/04/10 08:34:31;;;;;;;5.37;2.90;;;;;;;15.09;26.15;102064.37;1742081;82;21773;-91
2021/04/10 08:37:09;;;;;;;6.53;3.47;;;;;;;15.22;25.16;102063.45;1742040;82;21561;-89
2021/04/10 08:39:43;;;;;;;6.22;3.30;;;;;;;16.43;23.88;102063.97;1741913;81;21219;-90
2021/04/10 08:42:12;;;;;;;5.90;3.10;;;;;;;15.01;24.94;102060.23;1754993;81;21178;-89
2021/04/10 08:44:40;;;;;;;5.87;3.20;;;;;;;15.86;26.23;102064.66;1755059;81;21224;-91
2021/04/10 08:47:08;;;;;;;13.80;4.40;;;;;;;16.00;24.80;102060.95;1754873;81;21155;-90
2021/04/10 08:49:41;;;;;;;6.50;3.40;;;;;;;16.57;25.36;102057.53;1754765;81;21226;-89
2021/04/10 08:52:11;;;;;;;5.03;3.02;;;;;;;18.37;23.01;102054.05;1755064;81;21659;-88
2021/04/10 08:54:41;;;;;;;8.18;3.85;;;;;;;20.27;20.90;102046.94;1755138;81;21198;-89
2021/04/10 08:57:10;;;;;;;11.57;3.83;;;;;;;22.35;20.64;102034.05;1729701;81;21216;-89
2021/04/10 08:59:45;;;;;;;7.65;3.40;;;;;;;20.95;19.62;102037.67;1755047;81;21201;-88
2021/04/10 09:02:21;;;;;;;10.05;4.45;;;;;;;21.58;19.30;102037.30;1754990;81;21317;-90
2021/04/10 09:05:07;;;;;;;7.50;3.62;;;;;;;21.38;20.41;102026.65;1754950;81;21481;-89
2021/04/10 09:07:53;;;;;;;5.37;3.35;;;;;;;19.27;21.42;102029.39;1754928;81;21199;-88
2021/04/10 09:10:31;;;;;;;4.85;3.12;;;;;;;20.97;21.35;102024.47;1755014;81;21244;-88
2021/04/10 09:13:14;;;;;;;6.28;3.30;;;;;;;22.95;19.28;102015.27;1754946;81;21211;-88
2021/04/10 09:15:40;;;;;;;5.05;3.15;;;;;;;22.62;19.24;102012.64;1755024;81;21246;-88
2021/04/10 09:18:08;;;;;;;6.15;3.12;;;;;;;22.83;18.63;102008.89;1755000;81;20938;-88
2021/04/10 09:23:31;;;;;;;5.45;2.92;;;;;;;24.82;16.48;102001.59;1786494;80;21660;-88
2021/04/10 09:26:09;;;;;;;7.85;3.25;;;;;;;25.61;16.54;101995.52;1740528;81;21222;-88
2021/04/10 09:28:59;;;;;;;15.65;3.42;;;;;;;23.95;16.38;101994.41;1740916;82;21164;-88
2021/04/10 09:31:40;;;;;;;9.43;3.45;;;;;;;20.86;19.81;102004.06;1724473;83;21613;-91
2021/04/10 09:34:30;;;;;;;8.23;3.90;;;;;;;17.79;23.29;102017.56;1724713;83;21247;-89
2021/04/10 09:36:56;;;;;;;8.95;4.05;;;;;;;15.36;26.53;102012.81;1614757;88;21923;-91
2021/04/10 09:39:57;;;;;;;9.13;3.75;;;;;;;14.71;27.58;102011.30;1609170;88;21479;-90
2021/04/10 09:48:05;;;;;;;8.03;3.80;;;;;;;14.98;26.62;101990.16;1475095;97;21230;-88
2021/04/10 09:50:52;;;;;;;10.45;4.08;;;;;;;16.10;26.23;102001.20;1475039;97;21715;-88
2021/04/10 09:53:23;;;;;;;8.63;3.77;;;;;;;15.87;24.77;102001.86;1473135;97;21286;-89
2021/04/10 09:56:04;;;;;;;10.55;3.92;;;;;;;17.36;24.63;101980.19;1475210;95;21232;-89
2021/04/10 09:58:45;;;;;;;9.28;3.02;;;;;;;15.42;25.95;101994.94;1475109;97;21787;-89
2021/04/10 10:01:15;;;;;;;5.87;3.62;;;;;;;16.36;25.55;101995.38;1474913;96;21653;-88
2021/04/10 10:03:42;;;;;;;7.55;3.45;;;;;;;16.70;25.21;102001.78;1475224;97;21296;-89
2021/04/10 10:06:21;;;;;;;7.33;3.37;;;;;;;16.12;24.93;102001.77;1475004;95;21223;-88
2021/04/10 10:08:47;;;;;;;9.23;3.35;;;;;;;15.93;24.73;101996.47;1494109;95;21214;-89
2021/04/10 10:11:15;;;;;;;5.42;2.77;;;;;;;16.35;24.53;101987.77;1504789;95;21222;-89
2021/04/10 10:13:43;;;;;;;8.95;3.15;;;;;;;17.33;24.10;101972.56;1538530;91;21689;-90
2021/04/10 10:16:09;;;;;;;9.15;3.22;;;;;;;17.92;23.06;101972.56;1563439;91;21960;-90
2021/04/10 10:18:38;;;;;;;8.53;3.15;;;;;;;16.84;23.35;101977.09;1563423;91;21637;-91
2021/04/10 10:21:18;;;;;;;8.40;3.02;;;;;;;16.29;25.02;101971.11;1520722;92;21250;-93
2021/04/10 10:24:00;;;;;;;7.28;3.15;;;;;;;15.10;25.43;101979.15;1481972;96;21268;-89
2021/04/10 10:26:36;;;;;;;7.40;3.83;;;;;;;14.84;26.81;101977.51;1489938;96;21279;-89
2021/04/10 10:29:06;;;;;;;8.53;3.30;;;;;;;15.34;26.49;101971.50;1532994;93;21267;-89
2021/04/10 10:31:46;;;;;;;5.65;2.98;;;;;;;15.83;25.18;101976.28;1532975;93;21226;-89
2021/04/10 10:34:16;;;;;;;7.15;3.05;;;;;;;15.64;25.59;101960.88;1529955;93;21234;-88
2021/04/10 10:36:43;;;;;;;5.37;3.02;;;;;;;16.26;25.04;101970.83;1532968;93;21304;-89
2021/04/10 10:39:32;;;;;;;6.67;3.12;;;;;;;15.63;26.25;101963.88;1536948;91;21013;-91
2021/04/10 10:42:02;;;;;;;6.15;2.90;;;;;;;16.43;25.38;101970.64;1485350;96;21409;-89
2021/04/10 10:44:29;;;;;;;9.65;3.22;;;;;;;14.80;26.13;101976.93;1478256;94;21212;-89
2021/04/10 10:47:04;;;;;;;5.85;2.77;;;;;;;14.20;26.70;101971.24;1514548;94;21193;-90
2021/04/10 10:49:31;;;;;;;7.05;2.87;;;;;;;14.35;26.34;101967.91;1514555;94;21103;-88
2021/04/10 10:51:58;;;;;;;7.62;2.95;;;;;;;14.90;27.36;101966.98;1514542;94;21785;-90
2021/04/10 10:54:34;;;;;;;7.40;2.60;;;;;;;14.66;26.28;101962.37;1514611;94;21257;-91
2021/04/10 10:57:16;;;;;;;12.28;3.00;;;;;;;14.61;26.42;101961.50;1489806;95;21295;-88
2021/04/10 10:59:43;;;;;;;6.53;2.80;;;;;;;14.85;25.77;101962.03;1444584;99;21241;-88
2021/04/10 11:02:13;;;;;;;8.53;3.60;;;;;;;15.45;25.87;101958.29;1444936;99;21274;-89
2021/04/10 11:04:41;;;;;;;9.10;3.55;;;;;;;16.22;25.20;101946.06;1444967;99;21280;-91
2021/04/10 11:07:08;;;;;;;11.25;3.90;;;;;;;16.87;24.98;101950.69;1444897;99;21292;-89
2021/04/10 11:09:37;;;;;;;9.78;3.70;;;;;;;16.72;24.89;101939.73;1444947;99;21173;-89
2021/04/10 11:12:13;;;;;;;9.48;4.20;;;;;;;17.05;24.71;101942.55;1445627;98;21324;-90
2021/04/10 11:14:42;;;;;;;8.05;4.15;;;;;;;17.14;23.64;101941.47;1444172;98;21212;-90
2021/04/10 11:17:10;;;;;;;8.45;3.40;;;;;;;17.71;23.75;101935.75;1446053;98;21285;-91
2021/04/10 11:19:43;;;;;;;10.68;3.85;;;;;;;17.38;23.68;101934.42;1488933;92;21302;-90
2021/04/10 11:22:15;;;;;;;7.45;3.22;;;;;;;16.22;25.26;101942.52;1555736;92;21668;-91
2021/04/10 11:24:48;;;;;;;9.50;3.30;;;;;;;15.83;25.11;101937.41;1553839;92;21239;-90
2021/04/10 11:27:18;;;;;;;20.02;3.35;;;;;;;15.88;24.98;101932.83;1555953;92;20990;-90
2021/04/10 11:30:06;;;;;;;10.68;3.20;;;;;;;15.30;25.41;101929.10;1544278;91;21230;-89
2021/04/10 11:32:40;;;;;;;11.35;3.55;;;;;;;15.27;25.41;101924.19;1562411;91;21624;-89
2021/04/10 11:35:15;;;;;;;7.97;3.50;;;;;;;15.90;25.22;101920.31;1540409;91;21238;-89
2021/04/10 11:37:45;;;;;;;8.70;3.90;;;;;;;16.01;25.00;101917.13;1560023;91;21257;-90